sensor_id;sensor_type;location;lat;lon;timestamp;pressure;altitude;pressure_sealevel;temperature;humidity
41312;BME280;27061;41.648;24.568;2024-03-06T00:01:17;85394.22;;;5.15;78.95
41312;BME280;27061;41.648;24.568;2024-03-06T00:03:44;85390.13;;;5.06;78.93
41312;BME280;27061;41.648;24.568;2024-03-06T00:06:12;85370.94;;;4.90;79.27
41312;BME280;27061;41.648;24.568;2024-03-06T00:08:39;85325.03;;;4.60;79.77
41312;BME280;27061;41.648;24.568;2024-03-06T00:11:06;85373.00;;;4.83;79.88
41312;BME280;27061;41.648;24.568;2024-03-06T00:13:35;85359.97;;;4.77;79.89
41312;BME280;27061;41.648;24.568;2024-03-06T00:16:02;85431.22;;;5.30;80.02
41312;BME280;27061;41.648;24.568;2024-03-06T00:18:30;85373.00;;;4.87;80.19
41312;BME280;27061;41.648;24.568;2024-03-06T00:20:57;85425.75;;;5.26;80.58
41312;BME280;27061;41.648;24.568;2024-03-06T00:23:24;85396.31;;;4.94;80.36
41312;BME280;27061;41.648;24.568;2024-03-06T00:25:52;85405.22;;;5.05;80.41
41312;BME280;27061;41.648;24.568;2024-03-06T00:28:19;85397.66;;;5.03;80.73
41312;BME280;27061;41.648;24.568;2024-03-06T00:30:46;85396.28;;;5.00;80.61
41312;BME280;27061;41.648;24.568;2024-03-06T00:33:13;85392.88;;;5.08;80.31
41312;BME280;27061;41.648;24.568;2024-03-06T00:35:41;85411.38;;;5.11;79.82
41312;BME280;27061;41.648;24.568;2024-03-06T00:38:11;85432.66;;;5.17;80.32
41312;BME280;27061;41.648;24.568;2024-03-06T00:40:40;85363.41;;;4.76;80.20
41312;BME280;27061;41.648;24.568;2024-03-06T00:43:07;85416.84;;;5.11;80.87
41312;BME280;27061;41.648;24.568;2024-03-06T00:45:35;85249.69;;;3.55;81.58
41312;BME280;27061;41.648;24.568;2024-03-06T00:48:02;85370.97;;;4.53;81.41
41312;BME280;27061;41.648;24.568;2024-03-06T00:50:30;85446.38;;;5.15;81.29
41312;BME280;27061;41.648;24.568;2024-03-06T00:52:58;85453.22;;;5.18;81.35
41312;BME280;27061;41.648;24.568;2024-03-06T00:55:25;85276.41;;;3.75;81.18
41312;BME280;27061;41.648;24.568;2024-03-06T00:57:52;85389.47;;;4.83;80.94
41312;BME280;27061;41.648;24.568;2024-03-06T01:00:20;85453.19;;;5.30;80.16
41312;BME280;27061;41.648;24.568;2024-03-06T01:02:49;85459.38;;;5.35;80.10
41312;BME280;27061;41.648;24.568;2024-03-06T01:05:16;85450.47;;;5.20;80.09
41312;BME280;27061;41.648;24.568;2024-03-06T01:07:44;85458.69;;;5.26;80.30
41312;BME280;27061;41.648;24.568;2024-03-06T01:10:11;85393.59;;;4.74;80.36
41312;BME280;27061;41.648;24.568;2024-03-06T01:12:39;85359.31;;;4.49;80.92
41312;BME280;27061;41.648;24.568;2024-03-06T01:15:07;85404.56;;;4.86;81.05
41312;BME280;27061;41.648;24.568;2024-03-06T01:17:35;85457.31;;;5.25;81.30
41312;BME280;27061;41.648;24.568;2024-03-06T01:20:02;85452.53;;;5.18;81.23
41312;BME280;27061;41.648;24.568;2024-03-06T01:22:34;85393.59;;;4.74;81.17
41312;BME280;27061;41.648;24.568;2024-03-06T01:25:01;85460.06;;;5.23;81.08
41312;BME280;27061;41.648;24.568;2024-03-06T01:27:29;85467.63;;;5.27;81.36
41312;BME280;27061;41.648;24.568;2024-03-06T01:29:56;85394.97;;;4.75;81.03
41312;BME280;27061;41.648;24.568;2024-03-06T01:32:24;85464.88;;;5.27;81.24
41312;BME280;27061;41.648;24.568;2024-03-06T01:34:51;85473.13;;;5.29;81.31
41312;BME280;27061;41.648;24.568;2024-03-06T01:37:19;85440.88;;;5.13;81.48
41312;BME280;27061;41.648;24.568;2024-03-06T01:39:46;85444.97;;;5.10;81.74
41312;BME280;27061;41.648;24.568;2024-03-06T01:42:16;85471.06;;;5.29;81.47
41312;BME280;27061;41.648;24.568;2024-03-06T01:44:44;85470.38;;;5.27;81.48
41312;BME280;27061;41.648;24.568;2024-03-06T01:47:11;85412.78;;;4.84;81.69
41312;BME280;27061;41.648;24.568;2024-03-06T01:49:39;85440.19;;;5.10;81.79
41312;BME280;27061;41.648;24.568;2024-03-06T01:52:13;85410.72;;;4.91;81.26
41312;BME280;27061;41.648;24.568;2024-03-06T01:54:42;85468.28;;;5.33;81.26
41312;BME280;27061;41.648;24.568;2024-03-06T01:57:10;85475.84;;;5.31;81.56
41312;BME280;27061;41.648;24.568;2024-03-06T01:59:40;85474.47;;;5.30;81.66
41312;BME280;27061;41.648;24.568;2024-03-06T02:02:08;85474.47;;;5.26;81.79
41312;BME280;27061;41.648;24.568;2024-03-06T02:04:38;85448.44;;;4.94;82.06
41312;BME280;27061;41.648;24.568;2024-03-06T02:07:08;85475.84;;;5.23;82.22
41312;BME280;27061;41.648;24.568;2024-03-06T02:09:38;85474.47;;;5.22;82.34
41312;BME280;27061;41.648;24.568;2024-03-06T02:12:07;85435.38;;;4.89;82.11
41312;BME280;27061;41.648;24.568;2024-03-06T02:14:36;85425.81;;;4.73;82.42
41312;BME280;27061;41.648;24.568;2024-03-06T02:17:03;85440.22;;;4.86;82.61
41312;BME280;27061;41.648;24.568;2024-03-06T02:19:41;85464.88;;;5.14;82.31
41312;BME280;27061;41.648;24.568;2024-03-06T02:22:09;85481.34;;;5.19;81.85
41312;BME280;27061;41.648;24.568;2024-03-06T02:24:42;85447.03;;;5.01;81.22
41312;BME280;27061;41.648;24.568;2024-03-06T02:27:09;85458.00;;;5.09;81.19
41312;BME280;27061;41.648;24.568;2024-03-06T02:29:37;85400.44;;;4.51;81.11
41312;BME280;27061;41.648;24.568;2024-03-06T02:32:05;85412.09;;;4.55;81.69
41312;BME280;27061;41.648;24.568;2024-03-06T02:34:32;85434.72;;;4.70;81.72
41312;BME280;27061;41.648;24.568;2024-03-06T02:37:00;85442.25;;;4.73;81.83
41312;BME280;27061;41.648;24.568;2024-03-06T02:39:27;85404.53;;;4.50;81.97
41312;BME280;27061;41.648;24.568;2024-03-06T02:41:57;85490.25;;;5.13;81.50
41312;BME280;27061;41.648;24.568;2024-03-06T02:44:25;85479.97;;;5.03;81.26
41312;BME280;27061;41.648;24.568;2024-03-06T02:46:53;85495.06;;;5.21;81.18
41312;BME280;27061;41.648;24.568;2024-03-06T02:49:21;85427.84;;;4.67;81.49
41312;BME280;27061;41.648;24.568;2024-03-06T02:51:48;85496.44;;;5.18;81.50
41312;BME280;27061;41.648;24.568;2024-03-06T02:54:15;85418.94;;;4.64;81.37
41312;BME280;27061;41.648;24.568;2024-03-06T02:56:43;85447.06;;;4.95;79.96
41312;BME280;27061;41.648;24.568;2024-03-06T02:59:10;85452.53;;;4.89;79.33
41312;BME280;27061;41.648;24.568;2024-03-06T03:01:37;85439.50;;;4.88;79.44
41312;BME280;27061;41.648;24.568;2024-03-06T03:04:05;85453.91;;;4.90;80.01
41312;BME280;27061;41.648;24.568;2024-03-06T03:06:34;85445.69;;;4.82;79.91
41312;BME280;27061;41.648;24.568;2024-03-06T03:09:02;85470.38;;;5.04;79.76
41312;BME280;27061;41.648;24.568;2024-03-06T03:11:30;85501.94;;;5.28;79.14
41312;BME280;27061;41.648;24.568;2024-03-06T03:13:59;85458.03;;;4.93;79.18
41312;BME280;27061;41.648;24.568;2024-03-06T03:16:26;85501.25;;;5.25;79.55
41312;BME280;27061;41.648;24.568;2024-03-06T03:18:56;85445.69;;;4.82;79.67
41312;BME280;27061;41.648;24.568;2024-03-06T03:21:23;85501.22;;;5.21;78.76
41312;BME280;27061;41.648;24.568;2024-03-06T03:23:51;85479.97;;;4.99;78.67
41312;BME280;27061;41.648;24.568;2024-03-06T03:26:18;85500.53;;;5.12;79.06
41312;BME280;27061;41.648;24.568;2024-03-06T03:28:45;85512.22;;;5.13;79.66
41312;BME280;27061;41.648;24.568;2024-03-06T03:31:13;85427.16;;;4.52;79.91
41312;BME280;27061;41.648;24.568;2024-03-06T03:33:42;85444.97;;;4.59;80.15
41312;BME280;27061;41.648;24.568;2024-03-06T03:36:09;85508.09;;;5.10;80.48
41312;BME280;27061;41.648;24.568;2024-03-06T03:38:39;85513.59;;;5.12;80.59
41312;BME280;27061;41.648;24.568;2024-03-06T03:41:09;85465.56;;;4.83;80.42
41312;BME280;27061;41.648;24.568;2024-03-06T03:43:38;85485.44;;;4.91;80.18
41312;BME280;27061;41.648;24.568;2024-03-06T03:46:06;85493.69;;;4.97;80.18
41312;BME280;27061;41.648;24.568;2024-03-06T03:48:33;85465.56;;;4.70;80.33
41312;BME280;27061;41.648;24.568;2024-03-06T03:51:04;85533.47;;;5.10;80.44
41312;BME280;27061;41.648;24.568;2024-03-06T03:53:34;85528.00;;;5.12;80.18
41312;BME280;27061;41.648;24.568;2024-03-06T03:56:02;85494.34;;;4.88;79.99
41312;BME280;27061;41.648;24.568;2024-03-06T03:58:30;85452.53;;;4.61;80.17
41312;BME280;27061;41.648;24.568;2024-03-06T04:00:58;85536.22;;;5.14;80.19
41312;BME280;27061;41.648;24.568;2024-03-06T04:03:26;85482.69;;;4.71;79.96
41312;BME280;27061;41.648;24.568;2024-03-06T04:05:53;85475.16;;;4.63;80.15
41312;BME280;27061;41.648;24.568;2024-03-06T04:08:20;85486.81;;;4.78;80.60
41312;BME280;27061;41.648;24.568;2024-03-06T04:10:47;85522.50;;;4.96;80.30
41312;BME280;27061;41.648;24.568;2024-03-06T04:13:15;85526.59;;;5.09;80.31
41312;BME280;27061;41.648;24.568;2024-03-06T04:15:43;85517.00;;;4.96;80.73
41312;BME280;27061;41.648;24.568;2024-03-06T04:18:10;85534.16;;;5.01;80.68
41312;BME280;27061;41.648;24.568;2024-03-06T04:20:38;85547.88;;;5.09;80.86
41312;BME280;27061;41.648;24.568;2024-03-06T04:23:05;85499.84;;;4.77;80.22
41312;BME280;27061;41.648;24.568;2024-03-06T04:25:32;85458.69;;;4.53;80.16
41312;BME280;27061;41.648;24.568;2024-03-06T04:28:00;85548.56;;;5.11;79.63
41312;BME280;27061;41.648;24.568;2024-03-06T04:30:29;85477.19;;;4.59;79.38
41312;BME280;27061;41.648;24.568;2024-03-06T04:32:56;85538.97;;;5.04;79.14
41312;BME280;27061;41.648;24.568;2024-03-06T04:35:24;85460.72;;;4.47;78.70
41312;BME280;27061;41.648;24.568;2024-03-06T04:37:51;85429.84;;;4.16;78.46
41312;BME280;27061;41.648;24.568;2024-03-06T04:40:19;85532.78;;;4.92;76.73
41312;BME280;27061;41.648;24.568;2024-03-06T04:42:49;85538.25;;;4.86;76.69
41312;BME280;27061;41.648;24.568;2024-03-06T04:45:17;85540.31;;;4.81;76.20
41312;BME280;27061;41.648;24.568;2024-03-06T04:47:44;85486.75;;;4.41;76.85
41312;BME280;27061;41.648;24.568;2024-03-06T04:50:12;85497.03;;;4.45;76.95
41312;BME280;27061;41.648;24.568;2024-03-06T04:52:42;85466.84;;;4.21;77.09
41312;BME280;27061;41.648;24.568;2024-03-06T04:55:09;85553.97;;;4.59;77.34
41312;BME280;27061;41.648;24.568;2024-03-06T04:57:42;85513.47;;;4.37;77.35
41312;BME280;27061;41.648;24.568;2024-03-06T05:00:11;85501.16;;;4.40;77.36
41312;BME280;27061;41.648;24.568;2024-03-06T05:02:39;85551.25;;;4.73;76.59
41312;BME280;27061;41.648;24.568;2024-03-06T05:05:25;85499.75;;;4.35;76.71
41312;BME280;27061;41.648;24.568;2024-03-06T05:08:09;85517.56;;;4.36;76.89
41312;BME280;27061;41.648;24.568;2024-03-06T05:10:55;85559.44;;;4.53;77.05
41312;BME280;27061;41.648;24.568;2024-03-06T05:13:40;85560.09;;;4.47;77.49
41312;BME280;27061;41.648;24.568;2024-03-06T05:16:24;85485.94;;;3.90;77.92
41312;BME280;27061;41.648;24.568;2024-03-06T05:19:11;85570.41;;;4.55;77.77
41312;BME280;27061;41.648;24.568;2024-03-06T05:21:55;85568.34;;;4.57;78.32
41312;BME280;27061;41.648;24.568;2024-03-06T05:24:42;85543.59;;;4.31;78.40
41312;BME280;27061;41.648;24.568;2024-03-06T05:27:30;85527.78;;;4.11;78.68
41312;BME280;27061;41.648;24.568;2024-03-06T05:30:14;85530.50;;;4.15;78.76
41312;BME280;27061;41.648;24.568;2024-03-06T05:32:59;85526.41;;;4.10;78.92
41312;BME280;27061;41.648;24.568;2024-03-06T05:35:44;85514.72;;;4.01;79.32
41312;BME280;27061;41.648;24.568;2024-03-06T05:38:29;85592.34;;;4.61;79.59
41312;BME280;27061;41.648;24.568;2024-03-06T05:41:13;85595.09;;;4.61;79.44
41312;BME280;27061;41.648;24.568;2024-03-06T05:43:58;85561.41;;;4.36;79.77
41312;BME280;27061;41.648;24.568;2024-03-06T05:46:43;85545.59;;;4.16;79.90
41312;BME280;27061;41.648;24.568;2024-03-06T05:49:28;85589.59;;;4.59;79.27
41312;BME280;27061;41.648;24.568;2024-03-06T05:52:13;85586.84;;;4.55;79.12
41312;BME280;27061;41.648;24.568;2024-03-06T05:55:02;85516.75;;;3.95;79.19
41312;BME280;27061;41.648;24.568;2024-03-06T05:57:47;85603.31;;;4.67;79.70
41312;BME280;27061;41.648;24.568;2024-03-06T06:00:31;85544.22;;;4.13;79.83
41312;BME280;27061;41.648;24.568;2024-03-06T06:03:00;85610.88;;;4.70;79.90
41312;BME280;27061;41.648;24.568;2024-03-06T06:05:28;85564.19;;;4.42;79.98
41312;BME280;27061;41.648;24.568;2024-03-06T06:07:55;85606.78;;;4.71;80.21
41312;BME280;27061;41.648;24.568;2024-03-06T06:10:23;85575.16;;;4.44;81.00
41312;BME280;27061;41.648;24.568;2024-03-06T06:12:50;85607.47;;;4.78;80.90
41312;BME280;27061;41.648;24.568;2024-03-06T06:15:18;85596.47;;;4.62;80.81
41312;BME280;27061;41.648;24.568;2024-03-06T06:17:45;85555.25;;;4.35;80.92
41312;BME280;27061;41.648;24.568;2024-03-06T06:20:13;85589.63;;;4.65;80.57
41312;BME280;27061;41.648;24.568;2024-03-06T06:22:44;85515.44;;;4.14;80.45
41312;BME280;27061;41.648;24.568;2024-03-06T06:25:12;85591.03;;;4.74;80.18
41312;BME280;27061;41.648;24.568;2024-03-06T06:27:40;85591.72;;;4.76;79.90
41312;BME280;27061;41.648;24.568;2024-03-06T06:30:07;85608.88;;;4.91;79.78
41312;BME280;27061;41.648;24.568;2024-03-06T06:32:43;85609.56;;;4.92;80.33
41312;BME280;27061;41.648;24.568;2024-03-06T06:35:11;85519.63;;;4.33;80.69
41312;BME280;27061;41.648;24.568;2024-03-06T06:37:41;85573.19;;;4.77;78.22
41312;BME280;27061;41.648;24.568;2024-03-06T06:40:08;85586.28;;;4.99;79.31
41312;BME280;27061;41.648;24.568;2024-03-06T06:42:36;85559.50;;;4.75;79.47
41312;BME280;27061;41.648;24.568;2024-03-06T06:45:04;85615.81;;;5.25;80.18
41312;BME280;27061;41.648;24.568;2024-03-06T06:47:34;85610.34;;;5.29;79.54
41312;BME280;27061;41.648;24.568;2024-03-06T06:50:02;85543.03;;;4.81;79.38
41312;BME280;27061;41.648;24.568;2024-03-06T06:52:33;85608.28;;;5.33;79.08
41312;BME280;27061;41.648;24.568;2024-03-06T06:55:01;85526.56;;;4.71;78.54
41312;BME280;27061;41.648;24.568;2024-03-06T06:57:30;85617.19;;;5.32;79.10
41312;BME280;27061;41.648;24.568;2024-03-06T06:59:57;85603.47;;;5.32;78.43
41312;BME280;27061;41.648;24.568;2024-03-06T07:02:24;85511.47;;;4.64;78.78
41312;BME280;27061;41.648;24.568;2024-03-06T07:04:52;85401.72;;;3.95;78.89
41312;BME280;27061;41.648;24.568;2024-03-06T07:07:20;85414.03;;;3.90;78.96
41312;BME280;27061;41.648;24.568;2024-03-06T07:09:48;85499.09;;;4.47;78.46
41312;BME280;27061;41.648;24.568;2024-03-06T07:12:16;85467.56;;;4.31;79.25
41312;BME280;27061;41.648;24.568;2024-03-06T07:14:44;85418.78;;;3.79;80.17
41312;BME280;27061;41.648;24.568;2024-03-06T07:17:11;85255.63;;;2.79;80.71
41312;BME280;27061;41.648;24.568;2024-03-06T07:19:39;85566.38;;;5.00;80.25
41312;BME280;27061;41.648;24.568;2024-03-06T07:22:06;85608.31;;;5.39;81.92
41312;BME280;27061;41.648;24.568;2024-03-06T07:24:34;85642.63;;;5.75;80.86
41312;BME280;27061;41.648;24.568;2024-03-06T07:27:05;85615.16;;;5.50;81.78
41312;BME280;27061;41.648;24.568;2024-03-06T07:29:32;85430.56;;;4.32;80.78
41312;BME280;27061;41.648;24.568;2024-03-06T07:32:00;85383.25;;;3.99;80.40
41312;BME280;27061;41.648;24.568;2024-03-06T07:34:28;85657.09;;;6.00;80.87
41312;BME280;27061;41.648;24.568;2024-03-06T07:36:57;85588.41;;;5.61;77.82
41312;BME280;27061;41.648;24.568;2024-03-06T07:39:29;85669.44;;;5.97;77.26
41312;BME280;27061;41.648;24.568;2024-03-06T07:41:58;85455.28;;;4.55;77.54
41312;BME280;27061;41.648;24.568;2024-03-06T07:44:26;85602.81;;;5.47;78.41
41312;BME280;27061;41.648;24.568;2024-03-06T07:46:53;85650.22;;;6.11;78.98
41312;BME280;27061;41.648;24.568;2024-03-06T07:49:21;85583.59;;;5.72;76.81
41312;BME280;27061;41.648;24.568;2024-03-06T07:51:51;85388.72;;;4.14;76.26
41312;BME280;27061;41.648;24.568;2024-03-06T07:54:20;85628.25;;;6.03;77.03
41312;BME280;27061;41.648;24.568;2024-03-06T07:56:48;85631.66;;;5.99;78.34
41312;BME280;27061;41.648;24.568;2024-03-06T07:59:16;85591.13;;;5.87;78.66
41312;BME280;27061;41.648;24.568;2024-03-06T08:01:45;85647.41;;;6.41;79.53
41312;BME280;27061;41.648;24.568;2024-03-06T08:04:12;85570.53;;;5.88;80.16
41312;BME280;27061;41.648;24.568;2024-03-06T08:06:40;85622.72;;;6.23;81.52
41312;BME280;27061;41.648;24.568;2024-03-06T08:09:08;85598.00;;;5.99;80.86
41312;BME280;27061;41.648;24.568;2024-03-06T08:11:36;85654.97;;;6.39;79.68
41312;BME280;27061;41.648;24.568;2024-03-06T08:14:05;85650.16;;;6.45;76.32
41312;BME280;27061;41.648;24.568;2024-03-06T08:16:33;85599.38;;;6.08;77.19
41312;BME280;27061;41.648;24.568;2024-03-06T08:19:03;85610.34;;;6.06;80.74
41312;BME280;27061;41.648;24.568;2024-03-06T08:21:31;85587.03;;;5.82;81.81
41312;BME280;27061;41.648;24.568;2024-03-06T08:23:58;85665.28;;;6.54;81.38
41312;BME280;27061;41.648;24.568;2024-03-06T08:26:26;85582.88;;;6.14;81.91
41312;BME280;27061;41.648;24.568;2024-03-06T08:28:53;85580.13;;;6.08;84.01
41312;BME280;27061;41.648;24.568;2024-03-06T08:31:23;85576.00;;;6.13;86.33
41312;BME280;27061;41.648;24.568;2024-03-06T08:33:52;85672.06;;;6.88;86.55
41312;BME280;27061;41.648;24.568;2024-03-06T08:36:20;85603.38;;;6.49;85.43
41312;BME280;27061;41.648;24.568;2024-03-06T08:38:48;85583.47;;;6.39;83.53
41312;BME280;27061;41.648;24.568;2024-03-06T08:41:15;85672.00;;;7.08;81.96
41312;BME280;27061;41.648;24.568;2024-03-06T08:43:43;85659.59;;;7.07;82.06
41312;BME280;27061;41.648;24.568;2024-03-06T08:46:13;85643.16;;;6.91;81.21
41312;BME280;27061;41.648;24.568;2024-03-06T08:48:41;85663.69;;;7.14;80.82
41312;BME280;27061;41.648;24.568;2024-03-06T08:51:08;85625.94;;;6.92;81.36
41312;BME280;27061;41.648;24.568;2024-03-06T08:53:38;85651.31;;;7.11;81.63
41312;BME280;27061;41.648;24.568;2024-03-06T08:56:05;85681.50;;;7.38;81.21
41312;BME280;27061;41.648;24.568;2024-03-06T08:58:33;85680.78;;;7.43;80.68
41312;BME280;27061;41.648;24.568;2024-03-06T09:01:01;85651.28;;;7.21;80.08
41312;BME280;27061;41.648;24.568;2024-03-06T09:03:28;85621.13;;;6.95;79.78
41312;BME280;27061;41.648;24.568;2024-03-06T09:05:56;85682.84;;;7.43;78.45
41312;BME280;27061;41.648;24.568;2024-03-06T09:08:23;85667.00;;;7.43;77.99
41312;BME280;27061;41.648;24.568;2024-03-06T09:10:50;85584.66;;;6.98;77.53
41312;BME280;27061;41.648;24.568;2024-03-06T09:13:18;85677.22;;;7.63;76.80
41312;BME280;27061;41.648;24.568;2024-03-06T09:15:48;85679.97;;;7.63;76.69
41312;BME280;27061;41.648;24.568;2024-03-06T09:18:15;85614.09;;;7.26;78.09
41312;BME280;27061;41.648;24.568;2024-03-06T09:20:43;85624.38;;;7.36;77.92
41312;BME280;27061;41.648;24.568;2024-03-06T09:23:11;85604.53;;;7.11;78.27
41312;BME280;27061;41.648;24.568;2024-03-06T09:25:38;85675.88;;;7.60;77.35
41312;BME280;27061;41.648;24.568;2024-03-06T09:28:07;85595.63;;;7.05;76.83
41312;BME280;27061;41.648;24.568;2024-03-06T09:30:35;85614.03;;;7.37;81.10
41312;BME280;27061;41.648;24.568;2024-03-06T09:33:03;85565.91;;;7.23;80.99
41312;BME280;27061;41.648;24.568;2024-03-06T09:35:30;85665.97;;;7.99;77.72
41312;BME280;27061;41.648;24.568;2024-03-06T09:37:59;85617.97;;;7.70;76.52
41312;BME280;27061;41.648;24.568;2024-03-06T09:40:28;85668.56;;;8.24;78.57
41312;BME280;27061;41.648;24.568;2024-03-06T09:42:56;85660.19;;;8.38;80.68
41312;BME280;27061;41.648;24.568;2024-03-06T09:45:23;85618.97;;;8.18;85.09
41312;BME280;27061;41.648;24.568;2024-03-06T09:47:51;85610.59;;;8.30;86.46
41312;BME280;27061;41.648;24.568;2024-03-06T09:50:23;85644.78;;;8.67;85.49
41312;BME280;27061;41.648;24.568;2024-03-06T09:52:52;85650.00;;;8.96;83.35
41312;BME280;27061;41.648;24.568;2024-03-06T09:55:22;85625.06;;;9.02;85.91
41312;BME280;27061;41.648;24.568;2024-03-06T09:57:51;85644.22;;;9.20;77.82
41312;BME280;27061;41.648;24.568;2024-03-06T10:00:18;85592.09;;;8.90;79.74
41312;BME280;27061;41.648;24.568;2024-03-06T10:03:00;85571.31;;;8.95;80.23
41312;BME280;27061;41.648;24.568;2024-03-06T10:05:28;85593.75;;;9.24;73.32
41312;BME280;27061;41.648;24.568;2024-03-06T10:07:58;85601.22;;;9.33;73.18
41312;BME280;27061;41.648;24.568;2024-03-06T10:10:27;85649.13;;;9.69;71.54
41312;BME280;27061;41.648;24.568;2024-03-06T10:12:54;85620.63;;;9.29;65.78
41312;BME280;27061;41.648;24.568;2024-03-06T10:15:24;85661.44;;;9.80;65.89
41312;BME280;27061;41.648;24.568;2024-03-06T10:18:10;85511.06;;;8.54;64.69
41312;BME280;27061;41.648;24.568;2024-03-06T10:20:39;85599.94;;;9.26;63.26
41312;BME280;27061;41.648;24.568;2024-03-06T10:23:07;85630.66;;;9.55;65.80
41312;BME280;27061;41.648;24.568;2024-03-06T10:25:36;85567.63;;;9.14;68.56
41312;BME280;27061;41.648;24.568;2024-03-06T10:28:11;85654.38;;;9.89;75.45
41312;BME280;27061;41.648;24.568;2024-03-06T10:30:40;85616.00;;;9.65;74.86
41312;BME280;27061;41.648;24.568;2024-03-06T10:33:12;85541.34;;;9.20;74.94
41312;BME280;27061;41.648;24.568;2024-03-06T10:35:44;85520.00;;;9.14;75.36
41312;BME280;27061;41.648;24.568;2024-03-06T10:38:15;85472.19;;;8.74;76.96
41312;BME280;27061;41.648;24.568;2024-03-06T10:40:43;85606.00;;;9.90;75.68
41312;BME280;27061;41.648;24.568;2024-03-06T10:43:11;85626.53;;;10.05;73.87
41312;BME280;27061;41.648;24.568;2024-03-06T10:48:07;85500.59;;;9.20;72.88
41312;BME280;27061;41.648;24.568;2024-03-06T10:50:35;85653.78;;;10.34;72.37
41312;BME280;27061;41.648;24.568;2024-03-06T10:53:09;85473.16;;;9.06;67.87
41312;BME280;27061;41.648;24.568;2024-03-06T10:55:37;85590.78;;;9.91;69.23
41312;BME280;27061;41.648;24.568;2024-03-06T10:58:06;85574.22;;;9.87;69.93
41312;BME280;27061;41.648;24.568;2024-03-06T11:00:41;85634.66;;;10.15;64.09
41312;BME280;27061;41.648;24.568;2024-03-06T11:03:10;85504.69;;;9.23;66.01
41312;BME280;27061;41.648;24.568;2024-03-06T11:05:45;85630.47;;;10.18;65.62
41312;BME280;27061;41.648;24.568;2024-03-06T11:08:15;85579.06;;;9.86;65.30
41312;BME280;27061;41.648;24.568;2024-03-06T11:10:44;85601.72;;;9.99;65.95
41312;BME280;27061;41.648;24.568;2024-03-06T11:13:23;85579.94;;;9.75;66.61
41312;BME280;27061;41.648;24.568;2024-03-06T11:15:53;85380.41;;;8.23;65.85
41312;BME280;27061;41.648;24.568;2024-03-06T11:23:33;85405.03;;;8.41;66.82
41312;BME280;27061;41.648;24.568;2024-03-06T11:26:06;85589.53;;;9.82;66.07
41312;BME280;27061;41.648;24.568;2024-03-06T11:28:37;85451.41;;;8.81;67.56
41312;BME280;27061;41.648;24.568;2024-03-06T11:31:09;85478.59;;;9.12;69.69
41312;BME280;27061;41.648;24.568;2024-03-06T11:33:53;85611.06;;;10.22;67.98
41312;BME280;27061;41.648;24.568;2024-03-06T11:36:28;85431.91;;;8.94;68.52
41312;BME280;27061;41.648;24.568;2024-03-06T11:39:06;85583.44;;;10.18;68.94
41312;BME280;27061;41.648;24.568;2024-03-06T11:44:15;85431.06;;;9.05;61.98
41312;BME280;27061;41.648;24.568;2024-03-06T11:47:02;85601.19;;;10.36;61.80
41312;BME280;27061;41.648;24.568;2024-03-06T11:49:32;85456.28;;;9.28;62.34
41312;BME280;27061;41.648;24.568;2024-03-06T11:52:05;85604.53;;;10.42;60.13
41312;BME280;27061;41.648;24.568;2024-03-06T11:54:35;85568.53;;;9.99;60.23
41312;BME280;27061;41.648;24.568;2024-03-06T11:57:04;85582.19;;;10.09;62.96
41312;BME280;27061;41.648;24.568;2024-03-06T11:59:37;85496.69;;;9.52;62.63
41312;BME280;27061;41.648;24.568;2024-03-06T12:02:08;85561.38;;;10.14;60.46
41312;BME280;27061;41.648;24.568;2024-03-06T12:04:37;85467.72;;;9.49;62.85
41312;BME280;27061;41.648;24.568;2024-03-06T12:07:06;85531.91;;;9.97;61.94
41312;BME280;27061;41.648;24.568;2024-03-06T12:09:38;85553.16;;;10.08;61.67
41312;BME280;27061;41.648;24.568;2024-03-06T12:12:10;85595.69;;;10.34;64.29
41312;BME280;27061;41.648;24.568;2024-03-06T12:14:39;85575.09;;;10.22;63.40
41312;BME280;27061;41.648;24.568;2024-03-06T12:17:12;85409.78;;;8.98;63.01
41312;BME280;27061;41.648;24.568;2024-03-06T12:19:43;85486.78;;;9.65;63.24
41312;BME280;27061;41.648;24.568;2024-03-06T12:22:13;85553.53;;;10.29;67.35
41312;BME280;27061;41.648;24.568;2024-03-06T12:24:42;85526.53;;;10.32;61.32
41312;BME280;27061;41.648;24.568;2024-03-06T12:27:10;85481.19;;;10.12;61.16
41312;BME280;27061;41.648;24.568;2024-03-06T12:29:41;85552.03;;;10.77;61.49
41312;BME280;27061;41.648;24.568;2024-03-06T12:32:17;85560.06;;;10.91;58.46
41312;BME280;27061;41.648;24.568;2024-03-06T12:34:57;85516.19;;;10.69;66.88
41312;BME280;27061;41.648;24.568;2024-03-06T12:37:29;85499.72;;;10.61;65.92
41312;BME280;27061;41.648;24.568;2024-03-06T12:40:03;85554.06;;;11.16;68.13
41312;BME280;27061;41.648;24.568;2024-03-06T12:42:33;85457.06;;;10.48;66.50
41312;BME280;27061;41.648;24.568;2024-03-06T12:45:01;85564.53;;;11.11;68.78
41312;BME280;27061;41.648;24.568;2024-03-06T12:47:30;85506.03;;;10.92;69.58
41312;BME280;27061;41.648;24.568;2024-03-06T12:49:59;85552.53;;;11.23;65.27
41312;BME280;27061;41.648;24.568;2024-03-06T12:52:26;85551.00;;;11.30;64.55
41312;BME280;27061;41.648;24.568;2024-03-06T12:54:54;85526.97;;;11.20;64.26
41312;BME280;27061;41.648;24.568;2024-03-06T12:57:22;85545.34;;;11.36;63.29
41312;BME280;27061;41.648;24.568;2024-03-06T12:59:49;85572.31;;;11.37;57.00
41312;BME280;27061;41.648;24.568;2024-03-06T13:02:17;85489.75;;;10.76;58.05
41312;BME280;27061;41.648;24.568;2024-03-06T13:04:45;85452.34;;;10.40;58.85
41312;BME280;27061;41.648;24.568;2024-03-06T13:07:14;85565.13;;;11.16;62.55
41312;BME280;27061;41.648;24.568;2024-03-06T13:09:42;85474.97;;;10.53;63.70
41312;BME280;27061;41.648;24.568;2024-03-06T13:12:10;85405.28;;;10.05;62.32
41312;BME280;27061;41.648;24.568;2024-03-06T13:14:37;85535.78;;;10.94;62.45
41312;BME280;27061;41.648;24.568;2024-03-06T13:17:05;85468.34;;;10.38;58.39
41312;BME280;27061;41.648;24.568;2024-03-06T13:19:37;85554.16;;;11.12;59.00
41312;BME280;27061;41.648;24.568;2024-03-06T13:22:05;85568.72;;;11.10;58.05
41312;BME280;27061;41.648;24.568;2024-03-06T13:24:34;85590.06;;;11.16;58.82